Time;durP1;ratioP1;P1;durP2;ratioP2;P2;SDS_P1;SDS_P2;PMS_P1;PMS_P2;Temp;Humidity;BMP_temperature;BMP_pressure;BME280_temperature;BME280_humidity;BME280_pressure;Samples;Min_cycle;Max_cycle;Signal;HPM_P1;HPM_P2
2022/12/28 00:00:49;;;;;;;10.82;4.25;;;5.30;99.90;;;;;;4966239;28;20075;-63
2022/12/28 00:03:14;;;;;;;8.65;4.07;;;5.30;99.90;;;;;;4965181;28;20151;-63
2022/12/28 00:05:40;;;;;;;10.55;4.13;;;5.30;99.90;;;;;;4965580;28;20600;-63
2022/12/28 00:08:06;;;;;;;8.50;3.40;;;5.20;99.90;;;;;;4965170;28;20081;-64
2022/12/28 00:10:32;;;;;;;12.48;4.53;;;5.10;99.90;;;;;;4965068;28;20053;-64
2022/12/28 00:12:57;;;;;;;8.10;3.70;;;5.10;99.90;;;;;;4965149;28;20042;-63
2022/12/28 00:15:23;;;;;;;8.68;3.85;;;5.30;99.90;;;;;;4966844;28;20134;-63
2022/12/28 00:17:48;;;;;;;8.43;3.80;;;5.20;99.90;;;;;;4964150;28;20073;-64
2022/12/28 00:20:14;;;;;;;8.18;4.43;;;5.10;99.90;;;;;;4966982;28;20156;-63
2022/12/28 00:22:40;;;;;;;9.52;3.83;;;5.20;99.90;;;;;;4975805;28;20054;-63
2022/12/28 00:25:06;;;;;;;6.70;3.60;;;5.10;99.90;;;;;;4966714;28;20073;-64
2022/12/28 00:27:32;;;;;;;8.70;4.00;;;5.10;99.90;;;;;;4966945;28;20058;-63
2022/12/28 00:29:57;;;;;;;9.70;5.07;;;5.20;99.90;;;;;;4966800;28;20039;-63
2022/12/28 00:32:23;;;;;;;8.30;3.97;;;5.00;99.90;;;;;;4965548;28;20046;-63
2022/12/28 00:34:49;;;;;;;9.15;4.07;;;5.00;99.90;;;;;;4966545;28;20359;-63
2022/12/28 00:37:14;;;;;;;10.25;4.70;;;5.00;99.90;;;;;;4965056;28;20047;-62
2022/12/28 00:39:43;;;;;;;8.07;3.10;;;5.10;99.90;;;;;;4966358;28;20472;-62
2022/12/28 00:42:09;;;;;;;9.60;3.95;;;5.20;99.90;;;;;;4966101;28;20046;-62
2022/12/28 00:44:35;;;;;;;6.45;3.10;;;4.80;99.90;;;;;;4966993;28;20443;-62
2022/12/28 00:47:00;;;;;;;6.93;3.53;;;5.10;99.90;;;;;;4963998;28;20082;-62
2022/12/28 00:49:26;;;;;;;8.68;3.75;;;4.90;99.90;;;;;;4964100;28;20123;-62
2022/12/28 00:51:52;;;;;;;10.55;5.20;;;5.00;99.90;;;;;;4966060;28;20107;-61
2022/12/28 00:54:17;;;;;;;6.88;3.72;;;4.90;99.90;;;;;;4966138;28;20062;-62
2022/12/28 00:56:43;;;;;;;14.52;4.90;;;4.90;99.90;;;;;;4966018;28;20054;-63
2022/12/28 00:59:09;;;;;;;7.80;4.10;;;5.10;99.90;;;;;;4967306;28;20043;-62
2022/12/28 01:01:35;;;;;;;8.90;4.55;;;5.00;99.90;;;;;;4969614;28;20039;-62
2022/12/28 01:04:00;;;;;;;8.98;4.28;;;4.90;99.90;;;;;;4969804;28;20046;-62
2022/12/28 01:06:27;;;;;;;11.90;4.55;;;5.10;99.90;;;;;;4969306;28;20047;-62
2022/12/28 01:08:53;;;;;;;6.57;3.55;;;5.10;99.90;;;;;;4969753;28;20055;-63
2022/12/28 01:11:22;;;;;;;9.43;5.22;;;5.00;99.90;;;;;;4970070;28;20112;-62
2022/12/28 01:13:50;;;;;;;12.23;4.80;;;4.90;99.90;;;;;;4969332;28;20046;-62
2022/12/28 01:16:18;;;;;;;7.32;3.47;;;5.10;99.90;;;;;;4968887;28;20152;-63
2022/12/28 01:18:45;;;;;;;9.43;4.63;;;5.00;99.90;;;;;;4969357;28;20074;-62
2022/12/28 01:21:18;;;;;;;13.15;5.60;;;4.90;99.90;;;;;;4988792;28;20042;-63
2022/12/28 01:23:46;;;;;;;7.90;4.50;;;4.90;99.90;;;;;;4974854;28;20457;-62
2022/12/28 01:26:12;;;;;;;11.07;5.00;;;5.20;99.90;;;;;;4969441;28;20043;-62
2022/12/28 01:28:37;;;;;;;7.90;4.60;;;5.10;99.90;;;;;;4969510;28;20037;-62
2022/12/28 01:31:05;;;;;;;11.35;4.05;;;5.20;99.90;;;;;;4969440;28;20437;-64
2022/12/28 01:33:31;;;;;;;7.82;3.67;;;5.00;99.90;;;;;;4967822;28;20109;-62
2022/12/28 01:35:56;;;;;;;9.48;4.47;;;5.20;99.90;;;;;;4969399;28;20039;-63
2022/12/28 01:38:22;;;;;;;7.22;3.70;;;5.10;99.90;;;;;;4968387;28;20702;-62
2022/12/28 01:40:48;;;;;;;7.35;3.72;;;5.10;99.90;;;;;;4968684;28;20741;-62
2022/12/28 01:43:14;;;;;;;7.38;3.50;;;5.20;99.90;;;;;;4968990;28;20053;-61
2022/12/28 01:45:42;;;;;;;9.75;4.13;;;5.30;99.90;;;;;;4968987;28;20050;-64
2022/12/28 01:48:19;;;;;;;7.15;3.22;;;5.40;99.90;;;;;;4968570;28;20082;-62
2022/12/28 01:50:44;;;;;;;5.65;3.25;;;5.20;99.90;;;;;;4968930;28;20129;-62
2022/12/28 01:53:10;;;;;;;9.48;5.00;;;5.20;99.90;;;;;;4968495;28;20387;-64
2022/12/28 01:55:40;;;;;;;10.68;4.70;;;5.20;99.90;;;;;;4969014;28;20047;-63
2022/12/28 01:58:11;;;;;;;7.75;4.55;;;5.40;99.90;;;;;;4969211;28;20058;-63
2022/12/28 02:00:39;;;;;;;6.30;3.42;;;5.40;99.90;;;;;;4968772;28;20813;-62
2022/12/28 02:03:10;;;;;;;9.80;4.80;;;5.20;99.90;;;;;;4968046;28;20051;-62
2022/12/28 02:05:38;;;;;;;9.98;4.43;;;5.20;99.90;;;;;;4969289;28;20117;-62
2022/12/28 02:08:27;;;;;;;8.20;4.45;;;5.30;99.90;;;;;;4967824;28;20067;-62
2022/12/28 02:10:53;;;;;;;6.93;3.97;;;5.20;99.90;;;;;;4967645;28;20062;-63
2022/12/28 02:13:21;;;;;;;8.30;4.72;;;5.20;99.90;;;;;;5060133;22;20072;-65
2022/12/28 02:15:47;;;;;;;9.52;5.30;;;5.50;99.90;;;;;;4991395;28;20081;-63
2022/12/28 02:18:15;;;;;;;11.48;5.65;;;5.60;99.90;;;;;;4986679;28;20464;-63
2022/12/28 02:21:08;;;;;;;8.45;4.40;;;5.20;99.90;;;;;;4994160;28;20042;-61
2022/12/28 02:23:42;;;;;;;12.25;6.07;;;5.30;99.90;;;;;;4981136;28;20081;-62
2022/12/28 02:26:14;;;;;;;10.57;4.77;;;5.60;99.90;;;;;;4987670;28;20100;-62
2022/12/28 02:28:58;;;;;;;8.85;4.63;;;5.40;99.90;;;;;;4986557;28;20050;-63
2022/12/28 02:31:35;;;;;;;11.10;5.47;;;5.30;99.90;;;;;;4985805;28;20448;-62
2022/12/28 02:34:09;;;;;;;8.40;5.30;;;5.30;99.90;;;;;;4986077;28;20353;-63
2022/12/28 02:36:45;;;;;;;7.93;4.45;;;5.20;99.90;;;;;;4986628;28;20108;-62
2022/12/28 02:39:19;;;;;;;9.77;5.38;;;5.30;99.90;;;;;;4987904;28;20042;-62
2022/12/28 02:41:46;;;;;;;9.10;6.00;;;5.30;99.90;;;;;;4987167;28;20065;-63
2022/12/28 02:50:04;;;;;;;8.45;5.00;;;5.30;99.90;;;;;;4988184;28;20046;-62
2022/12/28 02:53:19;;;;;;;12.43;6.63;;;5.20;99.90;;;;;;4986200;28;20012;-62
2022/12/28 02:56:17;;;;;;;8.95;6.40;;;5.50;99.90;;;;;;4944293;29;20142;-63
2022/12/28 02:59:10;;;;;;;9.95;6.57;;;5.10;99.90;;;;;;4963978;28;20743;-63
2022/12/28 03:01:52;;;;;;;7.88;4.90;;;5.50;99.90;;;;;;4985587;28;20081;-62
2022/12/28 03:04:47;;;;;;;11.10;5.57;;;5.40;99.90;;;;;;4987036;28;20100;-62
2022/12/28 03:10:22;;;;;;;12.10;5.38;;;5.40;99.90;;;;;;4986385;28;20292;-63
2022/12/28 03:12:52;;;;;;;15.00;6.32;;;5.20;99.90;;;;;;4986531;28;20405;-62
2022/12/28 03:15:29;;;;;;;9.93;6.38;;;5.40;99.90;;;;;;4986541;28;20466;-62
2022/12/28 03:31:55;;;;;;;10.55;5.78;;;5.60;99.90;;;;;;4965420;28;20105;-63
2022/12/28 03:34:22;;;;;;;6.70;4.53;;;5.50;99.90;;;;;;4966297;28;20078;-62
2022/12/28 03:36:53;;;;;;;11.35;7.10;;;5.20;99.90;;;;;;4965109;28;20066;-62
2022/12/28 03:39:41;;;;;;;9.43;6.03;;;5.30;99.90;;;;;;4965352;28;20047;-62
2022/12/28 03:45:22;;;;;;;8.35;5.70;;;5.60;99.90;;;;;;4966864;28;20062;-62
2022/12/28 03:47:50;;;;;;;7.40;4.90;;;5.60;99.90;;;;;;4965725;28;20149;-63
2022/12/28 03:50:18;;;;;;;7.25;5.55;;;5.50;99.90;;;;;;4967259;28;20057;-62
2022/12/28 03:52:43;;;;;;;8.63;6.45;;;5.60;99.90;;;;;;4966254;28;20046;-63
2022/12/28 03:55:12;;;;;;;8.07;5.53;;;5.80;99.90;;;;;;4980935;28;20414;-62
2022/12/28 03:57:38;;;;;;;7.80;4.50;;;5.80;99.90;;;;;;4966537;28;20058;-62
2022/12/28 04:00:05;;;;;;;6.75;4.78;;;5.50;99.90;;;;;;4966635;28;20051;-62
2022/12/28 04:02:31;;;;;;;10.48;7.05;;;5.90;99.90;;;;;;4965091;28;20047;-63
2022/12/28 04:04:56;;;;;;;7.13;4.47;;;5.90;99.90;;;;;;4966350;28;20497;-62
2022/12/28 04:07:22;;;;;;;10.02;6.20;;;5.90;99.90;;;;;;4966264;28;20046;-62
2022/12/28 04:09:48;;;;;;;6.05;4.35;;;5.70;99.90;;;;;;4965498;28;20086;-65
2022/12/28 04:12:14;;;;;;;10.48;7.68;;;5.60;99.90;;;;;;4965215;28;20054;-63
2022/12/28 04:14:39;;;;;;;9.85;6.95;;;5.60;99.90;;;;;;4966241;28;20058;-63
2022/12/28 04:17:05;;;;;;;8.60;6.25;;;5.90;99.90;;;;;;4965495;28;20046;-62
2022/12/28 04:19:31;;;;;;;7.88;6.07;;;5.90;99.90;;;;;;4965931;28;20054;-62
2022/12/28 04:21:56;;;;;;;7.80;4.65;;;5.80;99.90;;;;;;4977010;28;20579;-63
2022/12/28 04:24:22;;;;;;;7.53;5.00;;;5.80;99.90;;;;;;4965969;28;20073;-62
2022/12/28 04:26:48;;;;;;;10.30;6.72;;;5.80;99.90;;;;;;4963931;28;20035;-63
2022/12/28 04:29:13;;;;;;;6.22;3.85;;;6.00;99.90;;;;;;4965388;28;20054;-62
2022/12/28 04:31:39;;;;;;;8.60;7.10;;;5.80;99.90;;;;;;4965198;28;20601;-63
2022/12/28 04:34:05;;;;;;;6.65;4.28;;;5.90;99.90;;;;;;4967562;28;20134;-63
2022/12/28 04:36:31;;;;;;;7.72;5.15;;;5.90;99.90;;;;;;4967838;28;20085;-62
2022/12/28 04:38:58;;;;;;;7.40;3.83;;;5.80;99.90;;;;;;4969399;28;20050;-63
2022/12/28 04:41:23;;;;;;;8.27;6.55;;;6.10;99.90;;;;;;4969523;28;20161;-63
2022/12/28 04:43:49;;;;;;;5.50;3.55;;;6.30;99.90;;;;;;4969985;28;20058;-63
2022/12/28 04:46:17;;;;;;;6.63;5.28;;;6.10;99.90;;;;;;4968971;28;20097;-63
2022/12/28 04:48:43;;;;;;;7.30;4.13;;;5.90;99.90;;;;;;4969771;28;20898;-63
2022/12/28 04:51:19;;;;;;;5.63;3.67;;;5.80;99.90;;;;;;4968978;28;20053;-64
2022/12/28 04:53:45;;;;;;;5.18;3.53;;;5.90;99.90;;;;;;4970043;28;20050;-63
2022/12/28 04:56:12;;;;;;;6.95;4.15;;;6.20;99.90;;;;;;4969475;28;20896;-63
2022/12/28 04:58:38;;;;;;;5.25;2.90;;;6.30;99.90;;;;;;4968982;28;20090;-63
2022/12/28 05:01:12;;;;;;;4.57;3.45;;;6.30;99.90;;;;;;4968559;28;20181;-63
2022/12/28 05:03:39;;;;;;;7.10;4.38;;;6.40;99.90;;;;;;4969494;28;20047;-63
2022/12/28 05:06:21;;;;;;;4.85;3.15;;;6.20;99.90;;;;;;4968964;28;20050;-63
2022/12/28 05:08:47;;;;;;;3.75;2.50;;;6.40;99.90;;;;;;4969699;28;20453;-63
2022/12/28 05:11:21;;;;;;;5.50;3.40;;;6.30;99.90;;;;;;4968044;28;20047;-63
2022/12/28 05:13:47;;;;;;;5.57;4.13;;;6.10;99.90;;;;;;4969284;28;20088;-63
2022/12/28 05:16:16;;;;;;;5.05;3.47;;;6.10;99.90;;;;;;4968209;28;20097;-63
2022/12/28 05:18:43;;;;;;;4.63;3.38;;;6.40;99.90;;;;;;4968441;28;20854;-63
2022/12/28 05:21:20;;;;;;;5.70;2.80;;;6.40;99.90;;;;;;4973974;28;20672;-63
2022/12/28 05:23:47;;;;;;;5.97;3.72;;;6.60;99.90;;;;;;4973799;28;20042;-63
2022/12/28 05:26:16;;;;;;;5.15;2.47;;;6.00;99.90;;;;;;4968244;28;20130;-63
2022/12/28 05:28:42;;;;;;;6.43;5.30;;;6.60;99.90;;;;;;4969321;28;20194;-63
2022/12/28 05:31:12;;;;;;;7.38;5.55;;;6.10;99.90;;;;;;4968496;28;20499;-64
2022/12/28 05:33:38;;;;;;;7.47;4.78;;;6.30;99.90;;;;;;4967724;28;20043;-64
2022/12/28 05:36:05;;;;;;;5.53;4.60;;;6.60;99.90;;;;;;4968729;28;20054;-63
2022/12/28 05:38:31;;;;;;;8.07;5.38;;;6.30;99.90;;;;;;4950869;28;20145;-63
2022/12/28 05:41:04;;;;;;;5.78;4.57;;;6.50;99.90;;;;;;4968186;28;20416;-64
2022/12/28 05:43:30;;;;;;;7.85;5.18;;;6.60;99.90;;;;;;4968689;28;20118;-63
2022/12/28 05:46:03;;;;;;;7.70;4.53;;;6.70;99.90;;;;;;4968296;28;20581;-63
2022/12/28 05:48:32;;;;;;;6.53;5.25;;;6.20;99.90;;;;;;4968008;28;20039;-63
2022/12/28 05:51:03;;;;;;;7.53;5.95;;;6.30;99.90;;;;;;4967931;28;20035;-64
2022/12/28 05:53:30;;;;;;;8.70;6.07;;;6.40;99.90;;;;;;4967970;28;20081;-64
2022/12/28 05:56:04;;;;;;;4.85;3.60;;;6.70;99.90;;;;;;4966730;28;20039;-63
2022/12/28 05:58:29;;;;;;;8.05;5.78;;;6.40;99.90;;;;;;4968711;28;20105;-64
2022/12/28 06:01:03;;;;;;;7.78;6.30;;;6.80;99.90;;;;;;4967833;28;20077;-64
2022/12/28 06:03:29;;;;;;;7.90;7.10;;;6.70;99.90;;;;;;4967683;28;20504;-63
2022/12/28 06:05:55;;;;;;;8.15;5.88;;;6.40;99.90;;;;;;4968253;28;20042;-63
2022/12/28 06:08:20;;;;;;;4.93;3.85;;;6.50;99.90;;;;;;4968150;28;20050;-63
2022/12/28 06:10:46;;;;;;;4.97;3.00;;;6.90;99.90;;;;;;4966111;28;20073;-63
2022/12/28 06:13:11;;;;;;;6.57;4.70;;;6.50;99.90;;;;;;4967273;28;20066;-62
2022/12/28 06:15:37;;;;;;;6.05;3.70;;;6.50;99.90;;;;;;4967458;28;20046;-63
2022/12/28 06:18:03;;;;;;;7.20;6.30;;;7.00;99.90;;;;;;4967695;28;20131;-63
2022/12/28 06:20:28;;;;;;;7.13;5.78;;;6.60;99.90;;;;;;4952301;28;20053;-63
2022/12/28 06:22:54;;;;;;;7.80;7.00;;;6.70;99.90;;;;;;4976043;28;20077;-63
2022/12/28 06:25:20;;;;;;;7.50;6.32;;;7.00;99.90;;;;;;4966225;28;20066;-64
2022/12/28 06:27:46;;;;;;;5.90;4.78;;;6.60;99.90;;;;;;4967126;28;20042;-64
2022/12/28 06:30:12;;;;;;;9.48;6.63;;;6.70;99.90;;;;;;4966929;28;20572;-63
2022/12/28 06:32:37;;;;;;;9.15;7.57;;;6.70;99.90;;;;;;4966646;28;20449;-63
2022/12/28 06:35:03;;;;;;;9.48;8.48;;;7.20;99.90;;;;;;4966890;28;20047;-64
2022/12/28 06:37:29;;;;;;;7.72;5.57;;;7.00;99.90;;;;;;4967327;28;20066;-63
2022/12/28 06:39:55;;;;;;;7.75;5.25;;;7.30;99.90;;;;;;4967665;28;20039;-63
2022/12/28 06:42:20;;;;;;;9.70;8.00;;;7.30;99.90;;;;;;4967051;28;20089;-64
2022/12/28 06:44:46;;;;;;;8.02;6.32;;;7.10;99.90;;;;;;4966377;28;20047;-64
2022/12/28 06:47:12;;;;;;;9.85;8.65;;;7.20;99.90;;;;;;4966490;28;20043;-63
2022/12/28 06:49:37;;;;;;;10.25;9.25;;;7.10;99.90;;;;;;4967296;28;20807;-63
2022/12/28 06:52:03;;;;;;;10.30;8.95;;;6.90;99.90;;;;;;4981661;28;20070;-64
2022/12/28 06:54:29;;;;;;;9.60;7.28;;;7.20;99.90;;;;;;4966968;28;20058;-63
2022/12/28 06:56:54;;;;;;;8.60;7.00;;;7.40;99.90;;;;;;4967150;28;20057;-64
2022/12/28 06:59:20;;;;;;;10.35;7.35;;;7.00;99.90;;;;;;4967286;28;20046;-64
2022/12/28 07:01:46;;;;;;;8.70;6.88;;;7.40;99.90;;;;;;4966339;28;20071;-63
2022/12/28 07:04:11;;;;;;;9.40;7.53;;;7.40;99.90;;;;;;4966903;28;20046;-64
2022/12/28 07:06:42;;;;;;;9.73;7.88;;;7.30;99.90;;;;;;4966970;28;20047;-64
2022/12/28 07:09:12;;;;;;;7.28;5.05;;;7.20;99.90;;;;;;4964933;28;20047;-64
2022/12/28 07:11:38;;;;;;;7.22;5.90;;;7.90;99.90;;;;;;4967213;28;20426;-64
2022/12/28 07:14:04;;;;;;;7.72;6.05;;;7.50;99.90;;;;;;4966863;28;20055;-64
2022/12/28 07:16:30;;;;;;;8.82;7.50;;;7.60;99.90;;;;;;4966292;28;20731;-63
2022/12/28 07:18:58;;;;;;;9.15;8.18;;;7.70;99.90;;;;;;4980965;28;20039;-64
2022/12/28 07:21:31;;;;;;;7.55;5.95;;;7.30;99.90;;;;;;4980259;28;20068;-64
2022/12/28 07:23:57;;;;;;;9.57;7.07;;;7.70;99.90;;;;;;4969973;28;20126;-64
2022/12/28 07:26:25;;;;;;;10.75;9.18;;;7.80;99.90;;;;;;4965504;28;20078;-64
2022/12/28 07:28:53;;;;;;;8.45;7.40;;;7.80;99.90;;;;;;4966699;28;20045;-63
2022/12/28 07:31:21;;;;;;;7.13;6.20;;;7.40;99.90;;;;;;4970962;28;20450;-64
2022/12/28 07:33:48;;;;;;;8.15;6.38;;;7.50;99.90;;;;;;4985851;28;20046;-64
2022/12/28 07:36:16;;;;;;;9.63;7.70;;;7.80;99.90;;;;;;4985877;28;20121;-64
2022/12/28 07:38:43;;;;;;;8.52;6.82;;;8.00;99.90;;;;;;4985396;28;20184;-64
2022/12/28 07:41:10;;;;;;;9.15;7.15;;;7.90;99.90;;;;;;4986345;28;20048;-64
2022/12/28 07:43:36;;;;;;;8.05;6.22;;;7.70;99.90;;;;;;4986429;28;20125;-63
2022/12/28 07:46:23;;;;;;;8.55;5.78;;;8.00;99.90;;;;;;4985707;28;20046;-64
2022/12/28 07:48:50;;;;;;;6.90;4.93;;;7.90;99.90;;;;;;4985753;28;20042;-64
2022/12/28 07:51:21;;;;;;;9.00;6.22;;;8.00;99.90;;;;;;4985615;28;20046;-64
2022/12/28 07:53:49;;;;;;;9.48;7.15;;;7.90;99.90;;;;;;4985532;28;20121;-64
2022/12/28 07:56:15;;;;;;;11.38;7.45;;;7.90;99.90;;;;;;4985760;28;20100;-64
2022/12/28 07:58:42;;;;;;;7.75;5.95;;;7.70;99.90;;;;;;4985734;28;20084;-64
2022/12/28 08:01:10;;;;;;;10.68;8.50;;;8.00;99.90;;;;;;4984819;28;20038;-64
2022/12/28 08:03:37;;;;;;;8.85;7.53;;;7.90;99.90;;;;;;4985588;28;20068;-63
2022/12/28 08:06:07;;;;;;;11.05;8.57;;;8.00;99.90;;;;;;4985355;28;20106;-64
2022/12/28 08:08:37;;;;;;;12.57;8.35;;;8.90;99.90;;;;;;4985936;28;20038;-64
2022/12/28 08:11:09;;;;;;;12.90;9.15;;;8.10;99.90;;;;;;4989504;28;20042;-64
2022/12/28 08:13:36;;;;;;;11.10;7.97;;;8.30;99.90;;;;;;4988962;28;20058;-63
2022/12/28 08:16:03;;;;;;;10.23;7.13;;;7.90;99.90;;;;;;4987883;28;20109;-64
2022/12/28 08:18:30;;;;;;;13.07;9.38;;;8.50;99.90;;;;;;4989512;28;20045;-64
2022/12/28 08:21:00;;;;;;;12.93;9.50;;;8.20;99.90;;;;;;4983470;28;20034;-64
2022/12/28 08:23:26;;;;;;;16.33;11.30;;;8.40;99.90;;;;;;4976876;28;20105;-64
2022/12/28 08:25:52;;;;;;;13.35;10.07;;;8.50;99.90;;;;;;4969848;28;20940;-64
2022/12/28 08:28:18;;;;;;;8.32;6.65;;;8.40;99.90;;;;;;4967940;28;20054;-64
2022/12/28 08:30:43;;;;;;;10.75;8.77;;;8.10;99.90;;;;;;4968174;28;20553;-64
2022/12/28 08:33:09;;;;;;;11.68;9.57;;;8.00;99.90;;;;;;4969691;28;20138;-64
2022/12/28 08:35:35;;;;;;;11.20;8.23;;;8.30;99.90;;;;;;4968056;28;20055;-64
2022/12/28 08:38:00;;;;;;;9.93;7.25;;;8.20;99.90;;;;;;4970361;28;20049;-64
2022/12/28 08:40:28;;;;;;;11.93;8.55;;;8.30;99.90;;;;;;4969404;28;20108;-64
2022/12/28 08:43:00;;;;;;;9.73;8.10;;;8.40;99.90;;;;;;4970118;28;20050;-64
2022/12/28 08:45:26;;;;;;;9.32;6.63;;;8.20;99.90;;;;;;4968470;28;20039;-64
2022/12/28 08:47:52;;;;;;;10.50;8.02;;;8.60;99.90;;;;;;4972537;28;20050;-64
2022/12/28 08:50:18;;;;;;;8.90;7.47;;;8.60;99.90;;;;;;4988072;28;20037;-64
2022/12/28 08:52:43;;;;;;;10.05;9.02;;;8.60;99.90;;;;;;4988509;28;20129;-64
2022/12/28 08:55:09;;;;;;;13.13;9.70;;;8.40;99.90;;;;;;4988454;28;20496;-64
2022/12/28 08:57:34;;;;;;;7.30;5.63;;;8.10;99.90;;;;;;4988521;28;20405;-65
2022/12/28 09:00:00;;;;;;;11.38;7.88;;;8.10;99.90;;;;;;4988378;28;20417;-64
2022/12/28 09:02:26;;;;;;;9.52;7.45;;;8.40;99.90;;;;;;4989098;28;20516;-64
2022/12/28 09:04:51;;;;;;;10.75;7.88;;;8.30;99.90;;;;;;4988189;28;20054;-64
2022/12/28 09:07:17;;;;;;;7.07;5.72;;;8.50;99.90;;;;;;4988545;28;20442;-64
2022/12/28 09:09:43;;;;;;;10.18;7.68;;;8.20;99.90;;;;;;4987073;28;20505;-64
2022/12/28 09:12:08;;;;;;;9.82;6.18;;;8.00;99.90;;;;;;4988057;28;20397;-64
2022/12/28 09:14:34;;;;;;;7.88;5.35;;;8.10;99.90;;;;;;4987484;28;20583;-64
2022/12/28 09:17:01;;;;;;;9.90;6.97;;;8.50;99.90;;;;;;4987483;28;20081;-63
2022/12/28 09:19:27;;;;;;;8.30;6.95;;;8.50;99.90;;;;;;4987648;28;20050;-64
2022/12/28 09:21:54;;;;;;;10.90;8.85;;;8.10;99.90;;;;;;4981837;28;20377;-64
2022/12/28 09:24:20;;;;;;;8.52;7.63;;;8.10;99.90;;;;;;4969309;28;20047;-64
2022/12/28 09:26:46;;;;;;;10.57;8.73;;;8.40;99.90;;;;;;4968489;28;20042;-64
2022/12/28 09:29:13;;;;;;;10.55;8.30;;;8.50;99.90;;;;;;4966598;28;20052;-65
2022/12/28 09:31:40;;;;;;;9.30;7.93;;;8.00;99.90;;;;;;4967804;28;20461;-65
2022/12/28 09:34:07;;;;;;;9.32;7.28;;;8.10;99.90;;;;;;4972019;28;20053;-65
2022/12/28 09:36:35;;;;;;;8.05;6.82;;;8.40;99.90;;;;;;4987094;28;20046;-65
2022/12/28 09:39:16;;;;;;;9.15;7.45;;;8.20;99.90;;;;;;4987269;28;20056;-65
2022/12/28 09:42:05;;;;;;;8.25;6.63;;;8.50;99.90;;;;;;4985085;28;20478;-65
2022/12/28 09:44:38;;;;;;;8.38;7.07;;;8.50;99.90;;;;;;5001623;28;20052;-66
2022/12/28 09:47:16;;;;;;;7.32;5.35;;;8.50;99.90;;;;;;4983546;28;20092;-66
2022/12/28 09:49:56;;;;;;;8.98;7.18;;;8.50;99.90;;;;;;4968807;28;20049;-64
2022/12/28 09:52:59;;;;;;;8.50;6.47;;;8.10;99.90;;;;;;4968429;28;20105;-66
2022/12/28 09:55:25;;;;;;;9.05;7.72;;;8.30;99.90;;;;;;4966176;28;20613;-66
2022/12/28 09:57:55;;;;;;;8.68;7.78;;;8.10;99.90;;;;;;4966323;28;20054;-65
2022/12/28 10:00:24;;;;;;;9.30;7.57;;;8.50;99.90;;;;;;4967387;28;20410;-65
2022/12/28 10:03:01;;;;;;;8.07;6.55;;;8.10;99.90;;;;;;4967940;28;20043;-65
2022/12/28 10:05:28;;;;;;;9.48;8.48;;;8.50;99.90;;;;;;4968090;28;20101;-65
2022/12/28 10:07:57;;;;;;;8.95;7.90;;;8.40;99.90;;;;;;4967764;28;20043;-65
2022/12/28 10:10:25;;;;;;;9.23;6.53;;;8.10;99.90;;;;;;4967796;28;20481;-65
2022/12/28 10:12:51;;;;;;;11.73;8.10;;;8.20;99.90;;;;;;4967988;28;20047;-65
2022/12/28 10:15:17;;;;;;;10.68;8.00;;;8.20;99.90;;;;;;4967300;28;20083;-65
2022/12/28 10:17:44;;;;;;;12.15;8.90;;;8.50;99.90;;;;;;4967824;28;20038;-65
2022/12/28 10:20:18;;;;;;;9.95;8.18;;;8.40;99.90;;;;;;4968067;28;20046;-65
2022/12/28 10:22:48;;;;;;;11.57;8.93;;;8.40;99.90;;;;;;4974366;28;20121;-65
2022/12/28 10:25:21;;;;;;;8.35;6.47;;;8.50;99.90;;;;;;4987064;28;20340;-65
2022/12/28 10:27:47;;;;;;;7.88;5.57;;;8.30;99.90;;;;;;4985266;28;20050;-65
2022/12/28 10:30:25;;;;;;;7.32;5.65;;;8.50;99.90;;;;;;4984924;28;20496;-64
2022/12/28 10:32:51;;;;;;;11.85;8.43;;;8.30;99.90;;;;;;4984253;28;20050;-64
2022/12/28 10:35:41;;;;;;;10.05;8.15;;;8.40;99.90;;;;;;4987139;28;20092;-65
2022/12/28 10:38:38;;;;;;;10.18;8.00;;;8.30;99.90;;;;;;4986940;28;20092;-65
2022/12/28 10:41:09;;;;;;;8.40;6.32;;;8.50;99.90;;;;;;4985048;28;20120;-64
2022/12/28 10:43:38;;;;;;;10.63;8.40;;;8.30;99.90;;;;;;4986004;28;20042;-65
2022/12/28 10:46:13;;;;;;;12.07;8.88;;;8.70;99.90;;;;;;4986487;28;20046;-64
2022/12/28 10:48:47;;;;;;;11.82;8.90;;;8.60;99.90;;;;;;4987568;28;20053;-65
2022/12/28 10:51:19;;;;;;;9.90;5.80;;;8.30;99.90;;;;;;4985723;28;20120;-65
2022/12/28 10:53:46;;;;;;;10.63;7.50;;;8.30;99.90;;;;;;4986783;28;20046;-64
2022/12/28 10:56:12;;;;;;;6.43;4.95;;;8.80;99.90;;;;;;4985668;28;20073;-66
2022/12/28 10:58:38;;;;;;;7.93;4.32;;;8.70;99.90;;;;;;4999652;28;20089;-64
2022/12/28 11:01:15;;;;;;;7.60;5.28;;;8.40;99.90;;;;;;5004769;28;20046;-64
2022/12/28 11:03:42;;;;;;;6.97;6.00;;;8.50;99.90;;;;;;5005826;28;20088;-66
2022/12/28 11:06:17;;;;;;;7.88;6.72;;;8.50;99.90;;;;;;4991469;28;20508;-65
2022/12/28 11:08:57;;;;;;;6.57;4.75;;;8.60;99.90;;;;;;4986497;28;20038;-65
2022/12/28 11:11:23;;;;;;;10.93;6.35;;;9.00;99.90;;;;;;4986754;28;20061;-65
2022/12/28 11:14:21;;;;;;;7.00;4.80;;;8.60;99.90;;;;;;4984616;28;20129;-65
2022/12/28 11:16:47;;;;;;;7.43;5.53;;;8.50;99.90;;;;;;4974631;28;20538;-64
2022/12/28 11:19:13;;;;;;;7.15;6.05;;;9.00;99.90;;;;;;4986061;28;20058;-64
2022/12/28 11:21:42;;;;;;;7.78;4.22;;;8.60;99.90;;;;;;4979979;28;20050;-65
2022/12/28 11:24:15;;;;;;;4.85;3.33;;;8.80;99.90;;;;;;4969609;28;20090;-64
2022/12/28 11:26:48;;;;;;;8.63;6.70;;;9.00;99.90;;;;;;4967831;28;20488;-65
2022/12/28 11:29:16;;;;;;;5.50;4.18;;;8.90;99.90;;;;;;4966606;28;20049;-65
2022/12/28 11:31:46;;;;;;;4.85;3.60;;;8.70;99.90;;;;;;4965681;28;20055;-64
2022/12/28 11:34:19;;;;;;;7.20;6.25;;;8.50;99.90;;;;;;4975232;28;20608;-60
2022/12/28 11:36:46;;;;;;;6.30;5.10;;;8.50;99.90;;;;;;4985325;28;20079;-64
2022/12/28 11:39:24;;;;;;;4.88;3.78;;;8.90;99.90;;;;;;4985828;28;20046;-64
2022/12/28 11:41:53;;;;;;;7.40;4.55;;;8.70;99.90;;;;;;4983748;28;20046;-64
2022/12/28 11:44:21;;;;;;;5.45;4.20;;;9.00;99.90;;;;;;4984412;28;20042;-65
2022/12/28 11:47:14;;;;;;;5.78;3.70;;;8.50;99.90;;;;;;4980529;28;20044;-64
2022/12/28 11:49:41;;;;;;;3.90;3.03;;;8.90;99.90;;;;;;4983677;28;20051;-64
2022/12/28 11:52:16;;;;;;;4.93;2.90;;;8.80;99.90;;;;;;4982146;28;20569;-65
2022/12/28 11:55:20;;;;;;;4.10;3.00;;;8.50;99.90;;;;;;4982408;28;20133;-65
2022/12/28 11:57:46;;;;;;;5.57;3.00;;;8.80;99.90;;;;;;4961122;28;20141;-64
2022/12/28 12:00:18;;;;;;;4.88;4.30;;;8.60;99.90;;;;;;4967567;28;20125;-64
2022/12/28 12:03:00;;;;;;;5.07;3.42;;;8.50;99.90;;;;;;4985104;28;20050;-64
2022/12/28 12:05:38;;;;;;;4.35;3.05;;;8.90;99.90;;;;;;4985900;28;20042;-64
2022/12/28 12:08:15;;;;;;;3.90;2.55;;;8.60;99.90;;;;;;4986357;28;20166;-64
2022/12/28 12:10:43;;;;;;;5.63;3.90;;;9.00;99.90;;;;;;4986105;28;20061;-64
2022/12/28 12:13:24;;;;;;;4.22;3.22;;;8.90;99.90;;;;;;4986066;28;20103;-64
2022/12/28 12:16:04;;;;;;;5.07;3.50;;;8.80;99.90;;;;;;4984447;28;20121;-64
2022/12/28 12:18:43;;;;;;;6.60;3.60;;;8.50;99.90;;;;;;4985385;28;20038;-64
2022/12/28 12:21:20;;;;;;;3.85;2.92;;;8.90;99.90;;;;;;4979236;28;20398;-64
2022/12/28 12:23:54;;;;;;;4.22;1.90;;;8.90;99.90;;;;;;4970715;28;20047;-65
2022/12/28 12:26:44;;;;;;;5.23;3.73;;;8.50;99.90;;;;;;4966098;28;20043;-63
2022/12/28 12:29:21;;;;;;;4.85;3.60;;;8.70;99.90;;;;;;4966448;28;20450;-64
2022/12/28 12:32:00;;;;;;;3.80;2.90;;;8.80;99.90;;;;;;4965345;28;20378;-64
2022/12/28 12:34:43;;;;;;;5.32;3.80;;;8.90;99.90;;;;;;4964541;28;20050;-63
2022/12/28 12:37:43;;;;;;;3.80;2.08;;;8.40;99.90;;;;;;4965403;28;20039;-64
2022/12/28 12:40:12;;;;;;;5.97;3.72;;;8.40;99.90;;;;;;4965297;28;20047;-63
2022/12/28 12:43:02;;;;;;;4.88;3.78;;;8.50;99.90;;;;;;4965830;28;20058;-64
2022/12/28 12:45:40;;;;;;;4.80;3.80;;;8.90;99.90;;;;;;4963239;28;20050;-64
2022/12/28 12:48:15;;;;;;;5.28;4.55;;;8.60;99.90;;;;;;4984209;28;20061;-65
2022/12/28 12:51:09;;;;;;;5.85;4.47;;;8.80;99.90;;;;;;4984160;28;20108;-65
2022/12/28 12:54:16;;;;;;;4.72;3.88;;;8.40;99.90;;;;;;4984795;28;20501;-64
2022/12/28 12:57:00;;;;;;;4.70;3.20;;;8.60;99.90;;;;;;4986402;28;20137;-65
2022/12/28 13:00:04;;;;;;;5.10;4.53;;;8.60;99.90;;;;;;4988292;28;20120;-64
2022/12/28 13:02:54;;;;;;;3.67;2.50;;;8.50;99.90;;;;;;4988302;28;20329;-63
2022/12/28 13:05:25;;;;;;;5.15;4.00;;;8.60;99.90;;;;;;4989029;28;20046;-64
2022/12/28 13:07:55;;;;;;;6.93;3.40;;;8.50;99.90;;;;;;4988556;28;20050;-63
2022/12/28 13:10:39;;;;;;;4.18;3.28;;;8.90;99.90;;;;;;4989402;28;20085;-64
2022/12/28 13:13:06;;;;;;;5.05;3.85;;;8.60;99.90;;;;;;4988440;28;20078;-64
2022/12/28 13:15:32;;;;;;;4.68;3.63;;;8.50;99.90;;;;;;4987972;28;20050;-63
2022/12/28 13:18:16;;;;;;;4.90;3.45;;;8.50;99.90;;;;;;4988854;28;20046;-64
2022/12/28 13:20:55;;;;;;;3.88;3.25;;;8.90;99.90;;;;;;4984133;28;20058;-63
2022/12/28 13:23:22;;;;;;;4.68;3.28;;;8.70;99.90;;;;;;4980583;28;20557;-64
2022/12/28 13:25:54;;;;;;;3.75;2.72;;;8.60;99.90;;;;;;4986392;28;20064;-65
2022/12/28 13:28:25;;;;;;;3.92;2.80;;;8.80;99.90;;;;;;4987953;28;20043;-65
2022/12/28 13:31:21;;;;;;;4.22;3.00;;;8.80;99.90;;;;;;4969509;28;20058;-64
2022/12/28 13:33:55;;;;;;;3.40;2.58;;;8.40;99.90;;;;;;4987669;28;20093;-64
2022/12/28 13:36:21;;;;;;;4.10;3.07;;;8.80;99.90;;;;;;4969859;28;20058;-65
2022/12/28 13:38:58;;;;;;;4.45;3.13;;;8.80;99.90;;;;;;4988241;28;20436;-64